Broxton, GA (31519)

7:32 AM EDT on March 30, 2015 (GMT -0400)
Douglas Golf Club Area | | Change Station
CLOSE
Current Station
Personal Weather Station
Location: Douglas, GA
Elevation: 224 ft
Nearby Weather Stations

Elev 224 ft 31.52 °N, 82.84 °W | Updated 47 seconds ago

Partly Cloudy
Partly Cloudy
46.6 °F
Feels Like 47 °F
N
0.0
Wind Variable Wind from NNE
Gusts 0.0 mph

Today
High -- | Low -- °F
--% Chance of Precip.
Yesterday
High -- | Low -- °F
Precip. -- in
7:22 AM 7:49 PM
Waxing Gibbous, 79% visible
Pressure 30.26 in
Visibility 10.0 miles
Clouds Scattered Clouds 5000 ft
Windchill 47 °F
Dew Point 42 °F
Humidity 84%
Rainfall 0.00 in
Snow Depth Not available.
UV 0 out of 12
Pollen 9.80 out of 12
Air Quality Not available.
Flu Activity Not available.
METAR KDQH 301115Z AUTO 21004KT 10SM SCT050 09/05 A3026 RMK AO2 LTG DSNT W

More Conditions Fewer Conditions

Pressure 30.26 in
Visibility 10.0 miles
Clouds Scattered Clouds 5000 ft
Windchill 47 °F
Dew Point 42 °F
Humidity 84%
Rainfall 0.00 in
Snow Depth Not available.
UV 0 out of 12
Pollen 9.80 out of 12
Air Quality Not available.
Flu Activity Not available.
METAR KDQH 301115Z AUTO 21004KT 10SM SCT050 09/05 A3026 RMK AO2 LTG DSNT W

More Conditions Fewer Conditions

10-Day Weather Forecast

Almanac

Astronomy

Mar. 30, 2015 Rise Set
Actual Time
Civil Twilight
Nautical Twilight
Astronomical Twilight
Moon
Length of Visible Light
Length of Day
Tomorrow will be .
, % of the Moon is Illuminated

Today's Extremes

State Highs State Lows

Community

WunderPhotos

Upload Photos

1,809,457 photos uploaded!

WunderBlogs® & News

Nearby

Air Quality

  Air Quality AQ Index Pollutant
Not available.

Snow Depth

Station Depth Elevation

Earthquake Activity

City Distance Mag. Time & Date
Minimum magnitude displayed is 2.5.

Coastal Water Temperatures

Place Temperature

Stations

Nearby Weather Stations

Station Location Temp. Windchill Dew Point Humidity Wind Precip. Elev Updated Type